createdAt,value
2017-09-30T00:01:24.659Z,100795.38
2017-09-30T00:03:50.929Z,100795.48
2017-09-30T00:06:17.151Z,100797.48
2017-09-30T00:08:43.377Z,100794.25
2017-09-30T00:11:09.644Z,100793.42
2017-09-30T00:13:36.006Z,100787.23
2017-09-30T00:16:02.207Z,100783.67
2017-09-30T00:18:28.464Z,100791.82
2017-09-30T00:20:54.685Z,100787.59
2017-09-30T00:23:20.892Z,100788.57
2017-09-30T00:25:47.153Z,100786.35
2017-09-30T00:28:13.371Z,100782.69
2017-09-30T00:30:39.620Z,100781.38
2017-09-30T00:33:05.916Z,100784.86
2017-09-30T00:35:32.144Z,100779.84
2017-09-30T00:37:58.379Z,100778.61
2017-09-30T00:40:24.642Z,100781.96
2017-09-30T00:42:50.872Z,100775.30
2017-09-30T00:45:17.097Z,100772.55
2017-09-30T00:47:43.372Z,100774.00
2017-09-30T00:50:09.598Z,100772.36
2017-09-30T00:52:35.818Z,100769.30
2017-09-30T00:55:02.108Z,100773.16
2017-09-30T00:57:28.340Z,100771.16
2017-09-30T00:59:54.554Z,100769.05
2017-09-30T01:02:20.828Z,100766.61
2017-09-30T01:04:47.061Z,100761.87
2017-09-30T01:07:13.300Z,100760.36
2017-09-30T01:09:39.585Z,100763.24
2017-09-30T01:12:05.825Z,100757.46
2017-09-30T01:14:32.045Z,100757.05
2017-09-30T01:16:58.312Z,100752.92
2017-09-30T01:19:24.533Z,100753.78
2017-09-30T01:21:50.758Z,100753.60
2017-09-30T01:24:17.693Z,100750.81
2017-09-30T01:26:43.908Z,100749.78
2017-09-30T01:29:10.143Z,100746.63
2017-09-30T01:31:36.415Z,100748.10
2017-09-30T01:34:02.644Z,100748.34
2017-09-30T01:36:28.877Z,100745.28
2017-09-30T01:38:55.169Z,100738.36
2017-09-30T01:41:21.391Z,100738.73
2017-09-30T01:43:47.624Z,100737.84
2017-09-30T01:46:13.904Z,100738.63
2017-09-30T01:48:40.134Z,100736.28
2017-09-30T01:51:06.367Z,100734.75
2017-09-30T01:53:32.631Z,100729.38
2017-09-30T01:55:58.859Z,100712.80
2017-09-30T01:58:25.083Z,100734.55
2017-09-30T02:00:51.349Z,100731.55
2017-09-30T02:03:17.740Z,100727.72
2017-09-30T02:05:43.975Z,100732.48
2017-09-30T02:08:10.257Z,100727.34
2017-09-30T02:10:36.501Z,100727.95
2017-09-30T02:13:02.711Z,100730.64
2017-09-30T02:15:29.013Z,100732.48
2017-09-30T02:17:55.233Z,100728.16
2017-09-30T02:20:21.454Z,100730.44
2017-09-30T02:22:47.709Z,100729.40
2017-09-30T02:25:13.956Z,100735.81
2017-09-30T02:27:40.184Z,100733.25
2017-09-30T02:30:06.465Z,100734.78
2017-09-30T02:32:32.853Z,100733.92
2017-09-30T02:34:59.075Z,100740.33
2017-09-30T02:37:25.334Z,100740.64
2017-09-30T02:39:51.559Z,100740.02
2017-09-30T02:42:17.802Z,100739.81
2017-09-30T02:44:44.075Z,100735.89
2017-09-30T02:47:10.334Z,100737.02
2017-09-30T02:49:36.557Z,100732.19
2017-09-30T02:52:03.078Z,100730.95
2017-09-30T02:54:29.467Z,100729.19
2017-09-30T02:56:55.799Z,100728.06
2017-09-30T02:59:22.091Z,100724.23
2017-09-30T03:01:48.332Z,100721.86
2017-09-30T03:04:14.589Z,100728.34
2017-09-30T03:06:40.859Z,100725.40
2017-09-30T03:09:07.097Z,100721.78
2017-09-30T03:11:33.330Z,100722.81
2017-09-30T03:13:59.613Z,100726.59
2017-09-30T03:16:25.848Z,100726.08
2017-09-30T03:18:52.122Z,100727.39
2017-09-30T03:21:18.390Z,100726.18
2017-09-30T03:23:44.622Z,100729.05
2017-09-30T03:26:10.862Z,100728.42
2017-09-30T03:28:37.140Z,100725.30
2017-09-30T03:31:03.361Z,100735.42
2017-09-30T03:33:29.588Z,100724.98
2017-09-30T03:35:55.834Z,100724.27
2017-09-30T03:38:22.064Z,100727.38
2017-09-30T03:40:48.294Z,100728.37
2017-09-30T03:43:14.569Z,100721.98
2017-09-30T03:45:40.772Z,100733.06
2017-09-30T03:48:07.005Z,100729.23
2017-09-30T03:50:33.280Z,100728.69
2017-09-30T03:52:59.504Z,100729.58
2017-09-30T03:55:25.726Z,100728.34
2017-09-30T03:57:51.984Z,100722.39
2017-09-30T04:00:18.209Z,100721.49
2017-09-30T04:02:44.439Z,100723.08
2017-09-30T04:05:10.714Z,100728.69
2017-09-30T04:07:36.962Z,100710.48
2017-09-30T04:10:03.200Z,100723.66
2017-09-30T04:12:29.472Z,100729.41
2017-09-30T04:14:55.714Z,100730.47
2017-09-30T04:17:21.943Z,100729.13
2017-09-30T04:19:48.220Z,100724.73
2017-09-30T04:22:14.460Z,100728.03
2017-09-30T04:24:40.693Z,100726.90
2017-09-30T04:27:07.011Z,100732.37
2017-09-30T04:29:33.249Z,100739.05
2017-09-30T04:31:59.469Z,100734.02
2017-09-30T04:34:25.758Z,100742.62
2017-09-30T04:36:51.983Z,100738.59
2017-09-30T04:39:18.202Z,100746.00
2017-09-30T04:41:44.457Z,100749.27
2017-09-30T04:44:10.678Z,100751.05
2017-09-30T04:46:36.916Z,100751.88
2017-09-30T04:49:03.188Z,100753.44
2017-09-30T04:51:29.415Z,100748.89
2017-09-30T04:53:55.633Z,100743.38
2017-09-30T04:56:21.908Z,100748.03
2017-09-30T04:58:48.154Z,100750.09
2017-09-30T05:01:14.392Z,100748.41
2017-09-30T05:03:40.611Z,100753.89
2017-09-30T05:06:06.892Z,100757.91
2017-09-30T05:08:33.115Z,100756.09
2017-09-30T05:10:59.340Z,100758.95
2017-09-30T05:13:25.605Z,100759.08
2017-09-30T05:15:51.870Z,100759.22
2017-09-30T05:18:18.092Z,100753.22
2017-09-30T05:20:44.363Z,100751.39
2017-09-30T05:23:10.645Z,100756.45
2017-09-30T05:25:36.881Z,100753.66
2017-09-30T05:28:03.193Z,100754.23
2017-09-30T05:30:29.431Z,100751.23
2017-09-30T05:32:55.663Z,100749.66
2017-09-30T05:35:21.938Z,100752.98
2017-09-30T05:37:48.233Z,100749.94
2017-09-30T05:40:14.456Z,100746.83
2017-09-30T05:42:40.736Z,100749.53
2017-09-30T05:45:06.976Z,100750.81
2017-09-30T05:47:33.206Z,100749.44
2017-09-30T05:49:59.469Z,100751.74
2017-09-30T05:52:25.692Z,100750.16
2017-09-30T05:54:52.007Z,100749.44
2017-09-30T05:57:18.262Z,100749.67
2017-09-30T05:59:44.487Z,100759.70
2017-09-30T06:02:10.720Z,100753.01
2017-09-30T06:04:37.047Z,100752.58
2017-09-30T06:07:03.280Z,100756.02
2017-09-30T06:09:29.512Z,100751.97
2017-09-30T06:11:55.783Z,100758.70
2017-09-30T06:14:22.021Z,100757.15
2017-09-30T06:16:48.243Z,100757.33
2017-09-30T06:19:14.511Z,100764.06
2017-09-30T06:21:40.761Z,100767.69
2017-09-30T06:24:06.984Z,100765.53
2017-09-30T06:26:33.274Z,100768.77
2017-09-30T06:28:59.511Z,100766.80
2017-09-30T06:31:25.746Z,100774.44
2017-09-30T06:33:52.086Z,100772.89
2017-09-30T06:36:18.325Z,100775.14
2017-09-30T06:38:44.744Z,100775.80
2017-09-30T06:41:11.184Z,100785.63
2017-09-30T06:43:37.395Z,100789.86
2017-09-30T06:46:03.625Z,100793.80
2017-09-30T06:48:30.058Z,100793.53
2017-09-30T06:50:56.296Z,100794.00
2017-09-30T06:53:22.514Z,100794.72
2017-09-30T06:55:48.759Z,100797.04
2017-09-30T06:58:14.990Z,100796.39
2017-09-30T07:00:41.216Z,100784.42
2017-09-30T07:03:07.447Z,100798.09
2017-09-30T07:05:33.678Z,100789.08
2017-09-30T07:08:00.114Z,100792.15
2017-09-30T07:10:26.381Z,100794.07
2017-09-30T07:12:52.612Z,100799.27
2017-09-30T07:15:18.825Z,100795.84
2017-09-30T07:17:45.080Z,100794.05
2017-09-30T07:20:11.305Z,100795.86
2017-09-30T07:22:37.536Z,100798.45
2017-09-30T07:25:03.816Z,100794.76
2017-09-30T07:27:30.073Z,100792.16
2017-09-30T07:29:56.304Z,100793.01
2017-09-30T07:32:22.658Z,100796.34
2017-09-30T07:34:48.887Z,100789.65
2017-09-30T07:37:15.130Z,100787.20
2017-09-30T07:39:41.401Z,100786.05
2017-09-30T07:42:07.639Z,100784.00
2017-09-30T07:44:33.846Z,100785.47
2017-09-30T07:47:00.117Z,100782.11
2017-09-30T07:49:26.315Z,100776.50
2017-09-30T07:51:52.558Z,100781.33
2017-09-30T07:54:18.814Z,100772.12
2017-09-30T07:56:45.043Z,100768.87
2017-09-30T07:59:11.383Z,100774.33
2017-09-30T08:01:37.675Z,100767.17
2017-09-30T08:04:03.891Z,100772.69
2017-09-30T08:06:30.116Z,100776.98
2017-09-30T08:08:56.383Z,100768.99
2017-09-30T08:11:22.601Z,100765.40
2017-09-30T08:13:48.829Z,100772.25
2017-09-30T08:16:15.119Z,100769.52
2017-09-30T08:18:41.349Z,100771.34
2017-09-30T08:21:07.579Z,100772.23
2017-09-30T08:23:33.854Z,100774.42
2017-09-30T08:26:00.085Z,100775.69
2017-09-30T08:28:26.308Z,100774.00
2017-09-30T08:30:52.595Z,100776.48
2017-09-30T08:33:18.836Z,100773.05
2017-09-30T08:35:45.061Z,100767.60
2017-09-30T08:38:11.326Z,100769.95
2017-09-30T08:40:37.549Z,100768.23
2017-09-30T08:43:03.769Z,100765.24
2017-09-30T08:45:30.008Z,100767.92
2017-09-30T08:47:56.220Z,100762.28
2017-09-30T08:50:22.447Z,100759.48
2017-09-30T08:52:48.712Z,100754.72
2017-09-30T08:55:14.987Z,100754.48
2017-09-30T08:57:41.230Z,100752.98
2017-09-30T09:00:07.501Z,100754.94
2017-09-30T09:02:33.728Z,100753.69
2017-09-30T09:04:59.944Z,100747.99
2017-09-30T09:07:26.218Z,100750.63
2017-09-30T09:09:52.428Z,100755.89
2017-09-30T09:12:18.652Z,100747.98
2017-09-30T09:14:44.919Z,100751.41
2017-09-30T09:17:11.150Z,100745.28
2017-09-30T09:19:37.380Z,100749.41
2017-09-30T09:22:03.652Z,100745.63
2017-09-30T09:24:29.845Z,100744.47
2017-09-30T09:26:56.096Z,100744.68
2017-09-30T09:29:22.355Z,100744.63
2017-09-30T09:31:48.579Z,100746.16
2017-09-30T09:34:14.852Z,100751.02
2017-09-30T09:36:41.136Z,100744.63
2017-09-30T09:39:07.380Z,100737.88
2017-09-30T09:41:33.634Z,100741.22
2017-09-30T09:43:59.931Z,100736.27
2017-09-30T09:46:26.150Z,100736.09
2017-09-30T09:48:52.392Z,100735.98
2017-09-30T09:51:18.682Z,100731.66
2017-09-30T09:53:44.910Z,100730.88
2017-09-30T09:56:11.125Z,100730.90
2017-09-30T09:58:37.390Z,100725.64
2017-09-30T10:01:03.633Z,100726.72
2017-09-30T10:03:29.851Z,100724.95
2017-09-30T10:05:56.137Z,100720.43
2017-09-30T10:08:22.361Z,100725.54
2017-09-30T10:10:48.720Z,100722.34
2017-09-30T10:13:14.971Z,100722.41
2017-09-30T10:15:41.198Z,100717.05
2017-09-30T10:18:07.431Z,100719.96
2017-09-30T10:20:33.739Z,100713.59
2017-09-30T10:22:59.960Z,100704.97
2017-09-30T10:25:26.214Z,100708.18
2017-09-30T10:27:52.512Z,100710.91
2017-09-30T10:30:18.741Z,100703.23
2017-09-30T10:32:45.052Z,100702.15
2017-09-30T10:35:11.368Z,100691.94
2017-09-30T10:37:37.621Z,100687.58
2017-09-30T10:40:03.849Z,100682.75
2017-09-30T10:42:30.169Z,100675.62
2017-09-30T10:44:56.404Z,100678.05
2017-09-30T10:47:22.683Z,100672.98
2017-09-30T10:49:49.008Z,100672.43
2017-09-30T10:52:15.264Z,100677.42
2017-09-30T10:54:41.481Z,100666.72
2017-09-30T10:57:07.759Z,100662.84
2017-09-30T10:59:33.979Z,100667.05
2017-09-30T11:02:00.210Z,100656.08
2017-09-30T11:04:26.485Z,100656.00
2017-09-30T11:06:52.721Z,100655.13
2017-09-30T11:09:18.956Z,100653.50
2017-09-30T11:11:45.228Z,100646.00
2017-09-30T11:14:11.463Z,100644.67
2017-09-30T11:16:37.680Z,100645.82
2017-09-30T11:19:03.941Z,100642.58
2017-09-30T11:21:30.346Z,100638.72
2017-09-30T11:23:56.561Z,100638.55
2017-09-30T11:26:22.813Z,100628.64
2017-09-30T11:28:49.029Z,100641.73
2017-09-30T11:31:15.264Z,100638.42
2017-09-30T11:33:41.532Z,100638.27
2017-09-30T11:36:07.757Z,100633.80
2017-09-30T11:38:33.992Z,100634.39
2017-09-30T11:41:00.258Z,100634.76
2017-09-30T11:43:26.480Z,100629.77
2017-09-30T11:45:52.703Z,100634.38
2017-09-30T11:48:18.981Z,100632.91
2017-09-30T11:50:45.198Z,100628.53
2017-09-30T11:53:11.415Z,100621.30
2017-09-30T11:55:37.684Z,100625.78
2017-09-30T11:58:03.919Z,100622.75
2017-09-30T12:00:30.160Z,100624.57
2017-09-30T12:02:56.444Z,100623.89
2017-09-30T12:05:22.660Z,100623.61
2017-09-30T12:07:48.888Z,100621.11
2017-09-30T12:10:15.175Z,100621.52
2017-09-30T12:12:41.405Z,100622.67
2017-09-30T12:15:07.636Z,100616.27
2017-09-30T12:17:33.905Z,100616.32
2017-09-30T12:20:00.126Z,100614.97
2017-09-30T12:22:26.354Z,100621.45
2017-09-30T12:24:52.619Z,100613.23
2017-09-30T12:27:18.844Z,100621.19
2017-09-30T12:29:45.052Z,100611.72
2017-09-30T12:32:11.312Z,100606.05
2017-09-30T12:34:37.540Z,100609.31
2017-09-30T12:37:03.753Z,100615.77
2017-09-30T12:39:30.023Z,100607.94
2017-09-30T12:41:56.248Z,100610.87
2017-09-30T12:44:22.471Z,100613.12
2017-09-30T12:46:48.682Z,100611.41
2017-09-30T12:49:15.175Z,100609.81
2017-09-30T12:51:41.394Z,100609.15
2017-09-30T12:54:07.623Z,100605.80
2017-09-30T12:56:33.862Z,100610.45
2017-09-30T12:59:00.091Z,100611.64
2017-09-30T13:01:26.362Z,100611.15
2017-09-30T13:03:52.611Z,100618.94
2017-09-30T13:06:18.917Z,100609.00
2017-09-30T13:08:45.196Z,100607.66
2017-09-30T13:11:11.433Z,100608.78
2017-09-30T13:13:38.593Z,100609.13
2017-09-30T13:16:04.874Z,100609.11
2017-09-30T13:18:31.124Z,100608.84
2017-09-30T13:20:57.404Z,100615.30
2017-09-30T13:23:23.640Z,100610.75
2017-09-30T13:25:49.897Z,100611.30
2017-09-30T13:28:16.837Z,100611.63
2017-09-30T13:30:43.133Z,100613.22
2017-09-30T13:33:09.382Z,100615.17
2017-09-30T13:35:35.641Z,100611.84
2017-09-30T13:38:01.875Z,100608.69
2017-09-30T13:40:28.110Z,100609.09
2017-09-30T13:42:54.369Z,100603.09
2017-09-30T13:45:20.600Z,100609.28
2017-09-30T13:47:46.838Z,100609.13
2017-09-30T13:50:13.113Z,100607.35
2017-09-30T13:52:39.346Z,100613.19
2017-09-30T13:55:05.573Z,100612.19
2017-09-30T13:57:31.831Z,100614.30
2017-09-30T13:59:58.064Z,100619.09
2017-09-30T14:02:24.302Z,100619.09
2017-09-30T14:04:50.596Z,100621.73
2017-09-30T14:07:16.819Z,100622.43
2017-09-30T14:09:43.052Z,100625.30
2017-09-30T14:12:09.310Z,100623.03
2017-09-30T14:14:35.562Z,100618.91
2017-09-30T14:17:01.785Z,100621.09
2017-09-30T14:19:28.053Z,100622.00
2017-09-30T14:21:54.278Z,100625.22
2017-09-30T14:24:20.487Z,100631.90
2017-09-30T14:26:46.736Z,100627.37
2017-09-30T14:29:12.964Z,100630.97
2017-09-30T14:31:39.187Z,100632.54
2017-09-30T14:34:05.458Z,100629.95
2017-09-30T14:36:31.683Z,100630.45
2017-09-30T14:38:57.915Z,100632.76
2017-09-30T14:41:24.195Z,100635.22
2017-09-30T14:43:50.405Z,100636.70
2017-09-30T14:46:16.628Z,100639.22
2017-09-30T14:48:42.876Z,100635.50
2017-09-30T14:51:09.097Z,100639.06
2017-09-30T14:53:35.320Z,100642.34
2017-09-30T14:56:01.863Z,100644.45
2017-09-30T14:58:28.093Z,100650.36
2017-09-30T15:00:54.313Z,100648.18
2017-09-30T15:03:20.589Z,100649.34
2017-09-30T15:05:46.813Z,100659.17
2017-09-30T15:08:13.052Z,100658.27
2017-09-30T15:10:39.331Z,100649.89
2017-09-30T15:13:05.564Z,100658.16
2017-09-30T15:15:31.802Z,100658.66
2017-09-30T15:17:58.069Z,100659.80
2017-09-30T15:20:24.320Z,100661.16
2017-09-30T15:22:50.533Z,100665.06
2017-09-30T15:25:16.786Z,100657.20
2017-09-30T15:27:43.029Z,100660.95
2017-09-30T15:30:09.257Z,100659.48
2017-09-30T15:32:35.536Z,100662.69
2017-09-30T15:35:01.756Z,100667.37
2017-09-30T15:37:27.979Z,100669.12
2017-09-30T15:39:54.291Z,100662.81
2017-09-30T15:42:20.520Z,100665.48
2017-09-30T15:44:46.732Z,100660.65
2017-09-30T15:47:13.003Z,100661.98
2017-09-30T15:49:39.234Z,100665.41
2017-09-30T15:52:05.452Z,100660.42
2017-09-30T15:54:31.809Z,100664.58
2017-09-30T15:56:58.296Z,100664.79
2017-09-30T15:59:24.665Z,100663.73
2017-09-30T16:01:51.024Z,100658.06
2017-09-30T16:04:17.239Z,100661.56
2017-09-30T16:06:43.457Z,100658.06
2017-09-30T16:09:09.740Z,100664.77
2017-09-30T16:14:07.361Z,100666.95
2017-09-30T16:16:33.632Z,100665.18
2017-09-30T16:18:59.887Z,100663.92
2017-09-30T16:21:26.303Z,100662.59
2017-09-30T16:23:52.565Z,100661.23
2017-09-30T16:26:18.784Z,100661.66
2017-09-30T16:28:45.012Z,100664.76
2017-09-30T16:31:11.279Z,100657.91
2017-09-30T16:33:37.668Z,100661.42
2017-09-30T16:36:03.889Z,100660.60
2017-09-30T16:38:30.158Z,100656.78
2017-09-30T16:40:56.397Z,100667.02
2017-09-30T16:43:22.644Z,100667.83
2017-09-30T16:45:48.924Z,100671.84
2017-09-30T16:48:15.170Z,100671.56
2017-09-30T16:50:41.520Z,100670.72
2017-09-30T16:53:07.786Z,100667.73
2017-09-30T16:55:34.014Z,100672.98
2017-09-30T16:58:00.253Z,100670.91
2017-09-30T17:00:26.525Z,100680.02
2017-09-30T17:02:52.730Z,100679.60
2017-09-30T17:05:18.955Z,100681.04
2017-09-30T17:07:45.208Z,100678.23
2017-09-30T17:10:11.423Z,100677.72
2017-09-30T17:12:37.634Z,100683.63
2017-09-30T17:15:03.891Z,100681.23
2017-09-30T17:17:30.099Z,100681.66
2017-09-30T17:19:56.297Z,100687.73
2017-09-30T17:22:22.555Z,100685.45
2017-09-30T17:24:48.769Z,100687.84
2017-09-30T17:27:14.993Z,100690.12
2017-09-30T17:29:41.255Z,100687.94
2017-09-30T17:32:07.469Z,100692.59
2017-09-30T17:34:33.697Z,100693.00
2017-09-30T17:36:59.994Z,100698.38
2017-09-30T17:39:26.244Z,100692.13
2017-09-30T17:41:52.469Z,100696.48
2017-09-30T17:44:18.749Z,100699.31
2017-09-30T17:46:44.958Z,100699.83
2017-09-30T17:49:11.188Z,100704.92
2017-09-30T17:51:37.454Z,100701.30
2017-09-30T17:54:03.678Z,100699.93
2017-09-30T17:56:30.020Z,100700.28
2017-09-30T17:58:56.279Z,100707.93
2017-09-30T18:01:22.491Z,100706.28
2017-09-30T18:03:48.727Z,100704.45
2017-09-30T18:06:15.112Z,100700.91
2017-09-30T18:08:41.341Z,100705.66
2017-09-30T18:11:07.559Z,100707.41
2017-09-30T18:13:33.807Z,100705.45
2017-09-30T18:16:00.071Z,100708.52
2017-09-30T18:18:26.518Z,100709.17
2017-09-30T18:20:52.774Z,100707.63
2017-09-30T18:23:18.999Z,100708.41
2017-09-30T18:25:45.212Z,100709.45
2017-09-30T18:28:11.465Z,100711.09
2017-09-30T18:30:37.696Z,100707.31
2017-09-30T18:33:04.053Z,100707.10
2017-09-30T18:35:30.313Z,100706.91
2017-09-30T18:37:56.518Z,100707.31
2017-09-30T18:40:22.711Z,100703.02
2017-09-30T18:42:48.959Z,100703.70
2017-09-30T18:45:15.167Z,100711.75
2017-09-30T18:47:41.392Z,100708.89
2017-09-30T18:50:07.640Z,100708.55
2017-09-30T18:52:33.848Z,100716.81
2017-09-30T18:55:00.101Z,100717.33
2017-09-30T18:57:26.316Z,100712.02
2017-09-30T18:59:52.527Z,100709.41
2017-09-30T19:02:18.789Z,100711.78
2017-09-30T19:04:44.998Z,100711.87
2017-09-30T19:07:11.200Z,100711.98
2017-09-30T19:09:37.535Z,100717.94
2017-09-30T19:12:03.767Z,100712.80
2017-09-30T19:14:30.003Z,100720.92
2017-09-30T19:16:56.300Z,100720.30
2017-09-30T19:19:22.532Z,100721.75
2017-09-30T19:21:48.778Z,100719.69
2017-09-30T19:24:15.058Z,100710.12
2017-09-30T19:26:41.415Z,100713.84
2017-09-30T19:29:07.649Z,100716.78
2017-09-30T19:31:33.896Z,100721.33
2017-09-30T19:34:00.106Z,100716.13
2017-09-30T19:36:26.316Z,100719.23
2017-09-30T19:38:52.587Z,100718.76
2017-09-30T19:41:18.819Z,100722.33
2017-09-30T19:43:45.052Z,100722.56
2017-09-30T19:46:11.297Z,100718.55
2017-09-30T19:48:37.691Z,100718.89
2017-09-30T19:51:03.917Z,100714.70
2017-09-30T19:53:30.179Z,100711.30
2017-09-30T19:55:56.407Z,100711.72
2017-09-30T19:58:22.685Z,100711.55
2017-09-30T20:00:48.912Z,100717.88
2017-09-30T20:03:15.136Z,100711.48
2017-09-30T20:05:41.572Z,100713.61
2017-09-30T20:08:07.790Z,100710.34
2017-09-30T20:10:34.015Z,100712.41
2017-09-30T20:13:00.258Z,100711.41
2017-09-30T20:15:26.488Z,100714.30
2017-09-30T20:17:52.738Z,100715.75
2017-09-30T20:20:19.008Z,100715.98
2017-09-30T20:22:45.231Z,100708.86
2017-09-30T20:25:11.513Z,100717.84
2017-09-30T20:27:37.823Z,100711.13
2017-09-30T20:30:04.061Z,100715.88
2017-09-30T20:32:30.284Z,100717.43
2017-09-30T20:34:56.558Z,100713.30
2017-09-30T20:37:22.776Z,100719.91
2017-09-30T20:39:49.014Z,100717.46
2017-09-30T20:42:15.265Z,100713.54
2017-09-30T20:44:41.490Z,100712.81
2017-09-30T20:47:07.723Z,100714.36
2017-09-30T20:49:34.010Z,100712.41
2017-09-30T20:52:00.246Z,100714.26
2017-09-30T20:54:26.446Z,100720.25
2017-09-30T20:56:52.711Z,100717.15
2017-09-30T20:59:18.936Z,100713.98
2017-09-30T21:01:45.135Z,100715.22
2017-09-30T21:04:11.414Z,100713.56
2017-09-30T21:06:37.637Z,100715.73
2017-09-30T21:09:03.848Z,100715.50
2017-09-30T21:11:30.103Z,100716.12
2017-09-30T21:13:56.326Z,100716.53
2017-09-30T21:16:22.544Z,100719.63
2017-09-30T21:18:48.794Z,100716.12
2017-09-30T21:21:15.015Z,100715.39
2017-09-30T21:23:41.232Z,100716.73
2017-09-30T21:26:07.495Z,100720.66
2017-09-30T21:28:33.695Z,100721.91
2017-09-30T21:30:59.903Z,100724.14
2017-09-30T21:33:26.169Z,100728.17
2017-09-30T21:35:52.392Z,100722.08
2017-09-30T21:38:18.608Z,100723.94
2017-09-30T21:40:44.870Z,100719.42
2017-09-30T21:43:11.100Z,100720.90
2017-09-30T21:45:37.315Z,100714.70
2017-09-30T21:48:03.560Z,100716.98
2017-09-30T21:50:29.783Z,100715.09
2017-09-30T21:52:55.993Z,100714.05
2017-09-30T21:55:22.259Z,100715.60
2017-09-30T21:57:48.603Z,100712.92
2017-09-30T22:00:14.826Z,100706.83
2017-09-30T22:02:41.067Z,100709.17
2017-09-30T22:05:07.297Z,100704.08
2017-09-30T22:07:33.507Z,100699.84
2017-09-30T22:09:59.759Z,100702.63
2017-09-30T22:12:25.977Z,100704.08
2017-09-30T22:14:52.205Z,100699.16
2017-09-30T22:17:18.649Z,100695.89
2017-09-30T22:19:44.877Z,100694.23
2017-09-30T22:22:11.115Z,100696.71
2017-09-30T22:24:37.379Z,100691.17
2017-09-30T22:27:03.597Z,100695.89
2017-09-30T22:29:29.818Z,100689.86
2017-09-30T22:31:56.066Z,100695.64
2017-09-30T22:34:22.276Z,100691.45
2017-09-30T22:36:48.494Z,100689.69
2017-09-30T22:39:14.759Z,100687.39
2017-09-30T22:41:40.981Z,100686.80
2017-09-30T22:44:07.277Z,100685.28
2017-09-30T22:46:33.534Z,100685.53
2017-09-30T22:48:59.759Z,100681.05
2017-09-30T22:51:25.987Z,100681.98
2017-09-30T22:53:52.240Z,100678.38
2017-09-30T22:56:18.486Z,100680.85
2017-09-30T22:58:44.709Z,100678.72
2017-09-30T23:01:10.954Z,100680.47
2017-09-30T23:03:37.182Z,100683.77
2017-09-30T23:06:03.409Z,100682.13
2017-09-30T23:08:29.676Z,100679.34
2017-09-30T23:10:55.885Z,100686.66
2017-09-30T23:13:22.096Z,100685.15
2017-09-30T23:15:48.368Z,100682.47
2017-09-30T23:18:14.600Z,100684.53
2017-09-30T23:20:40.823Z,100678.95
2017-09-30T23:23:07.076Z,100684.33
2017-09-30T23:25:33.301Z,100682.88
2017-09-30T23:27:59.537Z,100678.13
2017-09-30T23:30:25.795Z,100675.65
2017-09-30T23:32:52.126Z,100677.72
2017-09-30T23:35:18.347Z,100677.09
2017-09-30T23:37:44.574Z,100674.83
2017-09-30T23:40:10.801Z,100677.51
2017-09-30T23:42:37.038Z,100676.75
2017-09-30T23:45:03.300Z,100676.48
2017-09-30T23:47:29.529Z,100675.48
2017-09-30T23:49:55.750Z,100674.79
2017-09-30T23:52:22.013Z,100659.45
2017-09-30T23:54:48.222Z,100671.80
2017-09-30T23:57:14.438Z,100672.94
2017-09-30T23:59:40.689Z,100676.83
